Nashville, TN (37229)

11:15 AM CDT on October 02, 2014 (GMT -0500)
Woodland Pointe | Change Station
CLOSE
Current Station
Personal Weather Station
Location: Nashville, TN
Elevation: 580 ft
Nearby Weather Stations

Elev 580 ft 36.12 °N, 86.62 °W | Updated 27 seconds ago

Partly Cloudy
Partly Cloudy
85.0 °F
Feels Like 89 °F
N
2.0
Wind Variable Wind from East
Gusts 13.0 mph

Today
High -- | Low -- °F
--% Chance of Precip.
Yesterday
High -- | Low -- °F
Precip. -- in
6:42 AM 6:28 PM
First Quarter, 60% visible
Pressure 30.02 in
Visibility 10.0 miles
Clouds Few 10000 ft
Heat Index 89 °F
Dew Point 69 °F
Humidity 59%
Rainfall -999.00 in
Snow Depth Not available.
UV 6 out of 12
Pollen 5.40 out of 12
Ozone Good
PM2.5 Moderate
Flu Activity Not available.
METAR KBNA 021553Z 19013KT 10SM FEW100 28/18 A3003 RMK AO2 SLP164 T02830183

More Conditions Fewer Conditions

Pressure 30.02 in
Visibility 10.0 miles
Clouds Few 10000 ft
Heat Index 89 °F
Dew Point 69 °F
Humidity 59%
Rainfall -999.00 in
Snow Depth Not available.
UV 6 out of 12
Pollen 5.40 out of 12
Ozone Good
PM2.5 Moderate
Flu Activity Not available.
METAR KBNA 021553Z 19013KT 10SM FEW100 28/18 A3003 RMK AO2 SLP164 T02830183

More Conditions Fewer Conditions

10-Day Weather Forecast

Almanac

Astronomy

Oct. 02, 2014 Rise Set
Actual Time 6:42 AM CDT 6:28 PM CDT
Civil Twilight 6:16 AM CDT 6:54 PM CDT
Nautical Twilight 5:47 AM CDT 7:24 PM CDT
Astronomical Twilight 5:17 AM CDT 7:53 PM CDT
Moon 2:25 PM CDT 12:08 AM CDT
Length of Visible Light 12h 37m
Length of Day
11h 46m
Tomorrow will be 2m 17s shorter.
First Quarter, 60% of the Moon is Illuminated
Today
First Quarter
Oct 8
Full
Oct 15
Last Quarter
Oct 23
New
Oct 30
First Quarter

Today's Extremes

State Highs State Lows

Community

WunderPhotos

Upload Photos

1,758,290 photos uploaded!

WunderBlogs® & News

Nearby

Air Quality

  Air Quality AQ Index Pollutant
Yesterday Moderate
OZONE
Yesterday Moderate
PM2.5
Current Moderate
PM2.5
Current Good
OZONE
Thursday Moderate
PM2.5
Thursday Good
OZONE

Snow Depth

Station Depth Elevation
No new snow has been reported.

Earthquake Activity

City Distance Mag. Time & Date
No recent earthquake activity has been reported nearby.
Minimum magnitude displayed is 2.5.

Coastal Water Temperatures

Place Temperature
No Stations Reporting

Nearby Weather Stations